This is the latest recevied weather packets stored in our database for station/object K2NV. If no packets are shown the sender has not sent any weather packets the latest 1 day(s).
| Time | Temp. | Humidity | Pressure | Rain* | Wind** | Luminosity | Snow |
|---|---|---|---|---|---|---|---|
| 1778025557 | 9.44° C | 91% | 1007.5 hPa | 2.54 mm | 0 m/s | - | - |
| 1778025257 | 9.44° C | 91% | 1007.3 hPa | 2.54 mm | 0 m/s | - | - |
| 1778024955 | 9.44° C | 91% | 1007.3 hPa | 2.29 mm | 0.45 m/s, 227° | - | - |
| 1778024656 | 9.44° C | 91% | 1007.2 hPa | 2.29 mm | 0.45 m/s, 227° | - | - |
| 1778024357 | 9.44° C | 91% | 1007.2 hPa | 2.03 mm | 0.45 m/s, 235° | - | - |
| 1778024055 | 9.44° C | 91% | 1006.9 hPa | 1.78 mm | 0 m/s | - | - |
| 1778023756 | 9.44° C | 90% | 1007 hPa | 1.78 mm | 0.45 m/s, 253° | - | - |
| 1778023457 | 9.44° C | 91% | 1006.8 hPa | 1.78 mm | 0 m/s | - | - |
| 1778023155 | 9.44° C | 90% | 1007 hPa | 1.78 mm | 0.89 m/s, 253° | - | - |
| 1778022856 | 9.44° C | 90% | 1006.5 hPa | 1.52 mm | 0.45 m/s, 324° | - | - |
| 1778022556 | 10° C | 90% | 1006.6 hPa | 1.78 mm | 0 m/s | - | - |
| 1778022262 | 10° C | 90% | 1006.6 hPa | 2.03 mm | 0 m/s | - | - |
| 1778021956 | 10° C | 90% | 1006.7 hPa | 2.29 mm | 0 m/s | - | - |
| 1778021658 | 10° C | 90% | 1006.8 hPa | 2.29 mm | 0 m/s | - | - |
| 1778021356 | 10° C | 90% | 1006.8 hPa | 2.54 mm | 0 m/s | - | - |
| 1778021056 | 10° C | 90% | 1006.9 hPa | 2.54 mm | 0 m/s | - | - |
| 1778020755 | 10° C | 90% | 1006.8 hPa | 2.79 mm | 0 m/s | - | - |
| 1778020457 | 10° C | 90% | 1007 hPa | 2.79 mm | 0.45 m/s, 324° | - | - |
| 1778020156 | 10° C | 90% | 1007 hPa | 2.79 mm | 0.45 m/s, 324° | - | - |
| 1778019856 | 10° C | 89% | 1007.2 hPa | 3.05 mm | 0.89 m/s, 320° | - | - |
| 1778019556 | 10° C | 89% | 1007.2 hPa | 3.05 mm | 0.89 m/s, 330° | - | - |
| 1778019257 | 10° C | 89% | 1007.2 hPa | 3.05 mm | 0.89 m/s, 331° | - | - |
| 1778018956 | 10° C | 89% | 1007.1 hPa | 3.05 mm | 1.34 m/s, 334° | - | - |
| 1778018657 | 10° C | 89% | 1007 hPa | 2.79 mm | 0.89 m/s, 333° | - | - |
| 1778018355 | 10° C | 88% | 1007 hPa | 2.79 mm | 0.89 m/s, 321° | - | - |
* Rain latest hour (hover to see other rain measurements)
** Current wind speed in m/s (hover to see current wind gust speed)